Latest Weather Observations for Inner Beacon

IDQ60901

Issued at 6:35 am EST Thursday 2 October 2014 (issued every 10 minutes, with the page automatically refreshed every 10 minutes)

About weather observations | Map of Brisbane area stations | Latest observations for Brisbane area | Other Formats
Station Details ID: 040926 Name: INNER RECIPROCAL MARKER Lat: -27.26 Lon: 153.24 Height: 20.0 m
Data from the previous 72 hours. | See also: Recent months for locations in Queensland
Date/Time
EST
Tmp

°C
App
Tmp
°C
Dew
Point
°C
Rel
Hum
%
Delta-T

°C
Wind Press
QNH
hPa
Press
MSL
hPa
Rain
since
9 am
mm
Dir
 
Spd
km/h
Gust
km/h
Spd
kts
Gust
kts
02/06:30am - - - - - SE 32 41 17 22 - - -
02/06:00am - - - - - SE 33 43 18 23 - - -
02/05:30am - - - - - SE 35 44 19 24 - - -
02/05:00am - - - - - SE 37 46 20 25 - - -
02/04:30am - - - - - SE 41 48 22 26 - - -
02/04:00am - - - - - SE 39 48 21 26 - - -
02/03:30am - - - - - SSE 37 46 20 25 - - -
02/03:00am - - - - - SE 44 52 24 28 - - -
02/02:30am - - - - - SSE 43 50 23 27 - - -
02/02:00am - - - - - SSE 44 52 24 28 - - -
02/01:30am - - - - - SSE 46 54 25 29 - - -
02/01:00am - - - - - SSE 48 57 26 31 - - -
02/12:30am - - - - - SSE 46 56 25 30 - - -
02/12:00am - - - - - SSE 50 61 27 33 - - -
 
Date/Time
EST
Tmp

°C
App
Tmp
°C
Dew
Point
°C
Rel
Hum
%
Delta-T

°C
Wind Press
QNH
hPa
Press
MSL
hPa
Rain
since
9 am
mm
Dir
 
Spd
km/h
Gust
km/h
Spd
kts
Gust
kts
01/11:30pm - - - - - SSE 50 61 27 33 - - -
01/11:00pm - - - - - SSE 46 56 25 30 - - -
01/10:30pm - - - - - SSE 50 61 27 33 - - -
01/10:00pm - - - - - SSE 56 65 30 35 - - -
01/09:30pm - - - - - SSE 57 69 31 37 - - -
01/09:10pm - - - - - SSE 52 70 28 38 - - -
01/09:00pm - - - - - SSE 56 65 30 35 - - -
01/08:49pm - - - - - SSE 59 78 32 42 - - -
01/08:30pm - - - - - SSE 59 70 32 38 - - -
01/08:00pm - - - - - SSE 59 74 32 40 - - -
01/07:30pm - - - - - SSE 52 61 28 33 - - -
01/07:02pm - - - - - SE 33 54 18 29 - - -
01/07:00pm - - - - - SE 30 43 16 23 - - -
01/06:53pm - - - - - E 30 50 16 27 - - -
01/06:30pm - - - - - NE 33 39 18 21 - - -
01/06:00pm - - - - - NE 33 41 18 22 - - -
01/05:30pm - - - - - NE 35 41 19 22 - - -
01/05:00pm - - - - - NE 35 41 19 22 - - -
01/04:30pm - - - - - NE 35 41 19 22 - - -
01/04:00pm - - - - - NE 35 43 19 23 - - -
01/03:30pm - - - - - NE 35 43 19 23 - - -
01/03:00pm - - - - - NE 35 41 19 22 - - -
01/02:30pm - - - - - NE 35 41 19 22 - - -
01/02:00pm - - - - - NE 37 43 20 23 - - -
01/01:30pm - - - - - NE 35 41 19 22 - - -
01/01:00pm - - - - - NE 35 41 19 22 - - -
01/12:30pm - - - - - NE 33 37 18 20 - - -
01/12:00pm - - - - - NE 30 35 16 19 - - -
01/11:30am - - - - - NE 28 33 15 18 - - -
01/11:00am - - - - - NE 28 32 15 17 - - -
01/10:30am - - - - - NE 22 26 12 14 - - -
01/10:00am - - - - - NE 19 22 10 12 - - -
01/09:30am - - - - - N 17 20 9 11 - - -
01/09:00am - - - - - N 17 20 9 11 - - -
01/08:30am - - - - - N 20 22 11 12 - - -
01/08:00am - - - - - N 26 30 14 16 - - -
01/07:30am - - - - - N 28 30 15 16 - - -
01/07:00am - - - - - N 32 35 17 19 - - -
01/06:30am - - - - - N 30 35 16 19 - - -
01/06:00am - - - - - N 33 39 18 21 - - -
01/05:30am - - - - - N 35 43 19 23 - - -
01/05:00am - - - - - N 35 41 19 22 - - -
01/04:30am - - - - - N 35 41 19 22 - - -
01/04:00am - - - - - N 35 41 19 22 - - -
01/03:30am - - - - - N 33 41 18 22 - - -
01/03:00am - - - - - N 37 43 20 23 - - -
01/02:30am - - - - - N 37 44 20 24 - - -
01/02:00am - - - - - N 37 41 20 22 - - -
01/01:30am - - - - - N 37 43 20 23 - - -
01/01:00am - - - - - N 35 41 19 22 - - -
01/12:30am - - - - - N 33 41 18 22 - - -
01/12:00am - - - - - N 33 39 18 21 - - -
 
Date/Time
EST
Tmp

°C
App
Tmp
°C
Dew
Point
°C
Rel
Hum
%
Delta-T

°C
Wind Press
QNH
hPa
Press
MSL
hPa
Rain
since
9 am
mm
Dir
 
Spd
km/h
Gust
km/h
Spd
kts
Gust
kts
30/11:48pm - - - - - N 33 37 18 20 - - -
30/11:30pm - - - - - NE 39 44 21 24 - - -
30/11:00pm - - - - - NE 39 46 21 25 - - -
30/10:30pm - - - - - NE 33 39 18 21 - - -
30/10:00pm - - - - - NE 33 39 18 21 - - -
30/09:30pm - - - - - NE 33 39 18 21 - - -
30/09:00pm - - - - - NE 35 43 19 23 - - -
30/08:30pm - - - - - NE 35 43 19 23 - - -
30/08:00pm - - - - - NE 33 41 18 22 - - -
30/07:30pm - - - - - NE 33 43 18 23 - - -
30/07:00pm - - - - - NE 33 43 18 23 - - -
30/06:30pm - - - - - NE 33 39 18 21 - - -
30/06:00pm - - - - - NE 33 39 18 21 - - -
30/05:30pm - - - - - NE 33 41 18 22 - - -
30/05:00pm - - - - - NE 33 41 18 22 - - -
30/04:30pm - - - - - NE 33 41 18 22 - - -
30/04:00pm - - - - - NE 33 41 18 22 - - -
30/03:30pm - - - - - NE 35 41 19 22 - - -
30/03:00pm - - - - - NE 35 41 19 22 - - -
30/02:30pm - - - - - NE 35 41 19 22 - - -
30/02:00pm - - - - - NE 35 41 19 22 - - -
30/01:30pm - - - - - NE 35 41 19 22 - - -
30/01:00pm - - - - - NE 33 37 18 20 - - -
30/12:30pm - - - - - NE 33 37 18 20 - - -
30/12:00pm - - - - - NE 30 35 16 19 - - -
30/11:30am - - - - - NE 28 32 15 17 - - -
30/11:00am - - - - - NE 22 26 12 14 - - -
30/10:30am - - - - - NE 20 22 11 12 - - -
30/10:00am - - - - - NE 15 17 8 9 - - -
30/09:30am - - - - - NE 13 15 7 8 - - -
30/09:00am - - - - - N 11 13 6 7 - - -
30/08:30am - - - - - N 11 13 6 7 - - -
30/08:00am - - - - - N 11 13 6 7 - - -
30/07:30am - - - - - NNW 11 13 6 7 - - -
30/07:00am - - - - - NNW 9 11 5 6 - - -
30/06:30am - - - - - NNW 9 11 5 6 - - -
30/06:00am - - - - - NW 11 13 6 7 - - -
30/05:30am - - - - - NNW 13 15 7 8 - - -
30/05:00am - - - - - NNW 13 15 7 8 - - -
30/04:30am - - - - - N 15 17 8 9 - - -
30/04:00am - - - - - N 15 17 8 9 - - -
30/03:30am - - - - - N 17 17 9 9 - - -
30/03:00am - - - - - N 19 20 10 11 - - -
30/02:30am - - - - - N 19 22 10 12 - - -
30/02:00am - - - - - N 19 20 10 11 - - -
30/01:30am - - - - - N 19 20 10 11 - - -
30/01:00am - - - - - N 22 24 12 13 - - -
30/12:30am - - - - - N 24 30 13 16 - - -
30/12:00am - - - - - N 22 26 12 14 - - -
 
Date/Time
EST
Tmp

°C
App
Tmp
°C
Dew
Point
°C
Rel
Hum
%
Delta-T

°C
Wind Press
QNH
hPa
Press
MSL
hPa
Rain
since
9 am
mm
Dir
 
Spd
km/h
Gust
km/h
Spd
kts
Gust
kts
29/11:30pm - - - - - NNW 22 26 12 14 - - -
29/11:00pm - - - - - NNW 20 22 11 12 - - -
29/10:30pm - - - - - NNW 20 26 11 14 - - -
29/10:00pm - - - - - N 24 28 13 15 - - -
29/09:30pm - - - - - N 28 33 15 18 - - -
29/09:00pm - - - - - NNE 30 33 16 18 - - -
29/08:30pm - - - - - NE 28 32 15 17 - - -
29/08:00pm - - - - - NE 26 30 14 16 - - -
29/07:30pm - - - - - NE 24 28 13 15 - - -
29/07:00pm - - - - - NE 24 28 13 15 - - -
29/06:30pm - - - - - NE 24 28 13 15 - - -
29/06:00pm - - - - - NE 28 32 15 17 - - -
29/05:30pm - - - - - NE 32 35 17 19 - - -
29/05:00pm - - - - - NE 32 35 17 19 - - -
29/04:30pm - - - - - NE 30 33 16 18 - - -
29/04:00pm - - - - - NE 28 32 15 17 - - -
29/03:30pm - - - - - NE 26 30 14 16 - - -
29/03:00pm - - - - - NE 26 30 14 16 - - -
29/02:30pm - - - - - NE 24 28 13 15 - - -
29/02:00pm - - - - - NE 22 26 12 14 - - -
29/01:30pm - - - - - NE 20 24 11 13 - - -
29/01:00pm - - - - - NE 20 22 11 12 - - -
29/12:30pm - - - - - NE 19 22 10 12 - - -
29/12:00pm - - - - - NE 15 20 8 11 - - -
29/11:30am - - - - - NE 9 13 5 7 - - -
29/11:00am - - - - - NE 6 7 3 4 - - -
29/10:30am - - - - - NW 2 2 1 1 - - -
29/10:00am - - - - - W 4 6 2 3 - - -
29/09:30am - - - - - WSW 4 6 2 3 - - -
29/09:00am - - - - - SW 6 7 3 4 - - -
29/08:30am - - - - - SSW 6 7 3 4 - - -
29/08:00am - - - - - SSW 7 7 4 4 - - -
29/07:30am - - - - - SSW 9 11 5 6 - - -
29/07:00am - - - - - SSW 13 15 7 8 - - -

Latest Capital City Observations: Canberra | Sydney | Melbourne | Brisbane | Adelaide | Perth | Hobart | Darwin

Other Formats:

Comma delimited format used in spreadsheet applications
http://www.bom.gov.au/fwo/IDQ60901/IDQ60901.94590.axf

JavaScript Object Notation format (JSON) in row-major order
http://www.bom.gov.au/fwo/IDQ60901/IDQ60901.94590.json